(°C)
29°
29°
28°
27°
26°
26°
25°
(°C)
35°
35°
34°
33°
32°
31°
31°
SSV
SV
SV
VSV
V
V
VSV
(km/h)
7-14
8-15
8-16
7-17
7-17
6-15
4-12
(mm)
0.5
0.8
0.9
1.1
1.3
1.4
1.6
(%)
71
77
79
82
84
80
76

Elevația soarelui

/ 64.3°
sun-icon
UV 4
07:14
19:34
Primul pătrar (137°)
17:52
03:45

METAR pentru Tampa (KTPF)

Ora Condiții Temperatură/
Punctul de rouă
Vânt Vizibilitate Vremea Nori Presiune Schimbă Brut
VFR 27°C / 26°C 230º 3kt >10km Light Rain 1.27mm precipitation Scattered Clouds 6500ft - KTPF 171655Z AUTO 23003KT 10SM -RA SCT065 OVC100 27/26 A3011 RMK AO2 P0005
VFR 26°C / 25°C variable 0kt >10km Light Rain 0.76mm precipitation Scattered Clouds 9000ft - KTPF 171635Z AUTO 00000KT 7SM -RA SCT090 OVC110 26/25 A3011 RMK AO2 P0003
VFR 26°C / 25°C variable 0kt >10km Light Rain 0.25mm precipitation Scattered Clouds 5500ft - KTPF 171615Z AUTO 00000KT 10SM -RA SCT055 SCT070 OVC110 26/25 A3011 RMK AO2 P0001
MVFR 26°C / 25°C variable 0kt 8000m Light Rain 5.59mm precipitation Scattered Clouds 5500ft - KTPF 171555Z AUTO 00000KT 5SM -RA SCT055 BKN095 OVC110 26/25 A3012 RMK AO2 P0022
MVFR 25°C / 24°C 260º 3kt 4800m Rain 5.08mm precipitation Scattered Clouds 3800ft - KTPF 171535Z AUTO 26003KT 3SM RA SCT038 BKN075 OVC095 25/24 A3012 RMK AO2 P0020
IFR 25°C / 24°C 260º 6kt 4000m Heavy Rain 1.78mm precipitation Scattered Clouds 1600ft - KTPF 171515Z AUTO 26006KT 2 1/2SM +RA SCT016 BKN038 OVC080 25/24 A3013 RMK AO2 P0007
MVFR 30°C / 25°C 230º 9kt Gust 17kt >10km - Broken Clouds 1800ft - KTPF 171455Z AUTO 23009G17KT 10SM BKN018 BKN075 OVC110 30/25 A3011 RMK AO2
VFR 29°C / 25°C 160º 3kt >10km - Broken Clouds 9500ft - KTPF 171435Z AUTO 16003KT 10SM BKN095 BKN110 29/25 A3010 RMK AO2
VFR 28°C / 25°C variable 0kt >10km - Scattered Clouds 4000ft - KTPF 171415Z AUTO 00000KT 10SM SCT040 BKN095 28/25 A3010 RMK AO2
VFR 27°C / 25°C 170º 4kt >10km - Scattered Clouds 3800ft - KTPF 171355Z AUTO 17004KT 10SM SCT038 SCT080 BKN100 27/25 A3009 RMK AO2
VFR 27°C / 25°C 160º 3kt >10km - Broken Clouds 10000ft - KTPF 171335Z AUTO 16003KT 10SM BKN100 27/25 A3009 RMK AO2
VFR 27°C / 25°C 160º 4kt >10km - Broken Clouds 9000ft - KTPF 171315Z AUTO 16004KT 10SM BKN090 BKN110 27/25 A3008 RMK AO2
VFR 27°C / 25°C 170º 6kt >10km - Broken Clouds 10000ft - KTPF 171255Z AUTO 17006KT 10SM BKN100 27/25 A3008 RMK AO2
VFR 27°C / 25°C 150º 3kt >10km - Broken Clouds 9000ft - KTPF 171235Z AUTO 15003KT 10SM BKN090 OVC110 27/25 A3008 RMK AO2
VFR 27°C / 25°C 140º 3kt >10km - Broken Clouds 10000ft - KTPF 171215Z AUTO 14003KT 10SM BKN100 OVC120 27/25 A3007 RMK AO2
VFR 26°C / 24°C variable 0kt >10km - Overcast 9000ft - KTPF 171155Z AUTO 00000KT 10SM OVC090 26/24 A3007 RMK AO2
VFR 26°C / 24°C 130º 4kt >10km - Scattered Clouds 900ft - KTPF 171135Z AUTO 13004KT 10SM SCT009 BKN090 OVC110 26/24 A3007 RMK AO2
VFR 25°C / 24°C 160º 3kt >10km - Scattered Clouds 900ft - KTPF 171115Z AUTO 16003KT 10SM SCT009 BKN100 OVC120 25/24 A3006 RMK AO2
VFR 25°C / 24°C variable 0kt >10km - Scattered Clouds 700ft - KTPF 171055Z AUTO 00000KT 10SM SCT007 BKN100 OVC120 25/24 A3005 RMK AO2
VFR 25°C / 25°C 150º 3kt >10km - Scattered Clouds 900ft - KTPF 171035Z AUTO 15003KT 10SM SCT009 BKN100 OVC110 25/25 A3004 RMK AO2
IFR 26°C / 25°C 160º 5kt >10km - Broken Clouds 900ft - KTPF 171015Z AUTO 16005KT 10SM BKN009 OVC100 26/25 A3004 RMK AO2
VFR 26°C / 25°C 170º 3kt >10km - Overcast 10000ft - KTPF 170955Z AUTO 17003KT 10SM OVC100 26/25 A3004 RMK AO2
VFR 25°C / 24°C 150º 3kt >10km - Broken Clouds 10000ft - KTPF 170935Z AUTO 15003KT 10SM BKN100 OVC110 25/24 A3002 RMK AO2
VFR 26°C / 25°C 170º 3kt >10km - Overcast 10000ft - KTPF 170915Z AUTO 17003KT 10SM OVC100 26/25 A3003 RMK AO2

VFR

27°C / 26°C

[Mai mult]
Vânt 230º 3kt
Vizibilitate >10km
Vremea Light Rain 1.27mm precipitation
Nori Scattered Clouds 6500ft
Presiune
Schimbă -
Brut KTPF 171655Z AUTO 23003KT 10SM -RA SCT065 OVC100 27/26 A3011 RMK AO2 P0005

VFR

26°C / 25°C

[Mai mult]
Vânt variable 0kt
Vizibilitate >10km
Vremea Light Rain 0.76mm precipitation
Nori Scattered Clouds 9000ft
Presiune
Schimbă -
Brut KTPF 171635Z AUTO 00000KT 7SM -RA SCT090 OVC110 26/25 A3011 RMK AO2 P0003

VFR

26°C / 25°C

[Mai mult]
Vânt variable 0kt
Vizibilitate >10km
Vremea Light Rain 0.25mm precipitation
Nori Scattered Clouds 5500ft
Presiune
Schimbă -
Brut KTPF 171615Z AUTO 00000KT 10SM -RA SCT055 SCT070 OVC110 26/25 A3011 RMK AO2 P0001

MVFR

26°C / 25°C

[Mai mult]
Vânt variable 0kt
Vizibilitate 8000m
Vremea Light Rain 5.59mm precipitation
Nori Scattered Clouds 5500ft
Presiune
Schimbă -
Brut KTPF 171555Z AUTO 00000KT 5SM -RA SCT055 BKN095 OVC110 26/25 A3012 RMK AO2 P0022

MVFR

25°C / 24°C

[Mai mult]
Vânt 260º 3kt
Vizibilitate 4800m
Vremea Rain 5.08mm precipitation
Nori Scattered Clouds 3800ft
Presiune
Schimbă -
Brut KTPF 171535Z AUTO 26003KT 3SM RA SCT038 BKN075 OVC095 25/24 A3012 RMK AO2 P0020

IFR

25°C / 24°C

[Mai mult]
Vânt 260º 6kt
Vizibilitate 4000m
Vremea Heavy Rain 1.78mm precipitation
Nori Scattered Clouds 1600ft
Presiune
Schimbă -
Brut KTPF 171515Z AUTO 26006KT 2 1/2SM +RA SCT016 BKN038 OVC080 25/24 A3013 RMK AO2 P0007

MVFR

30°C / 25°C

[Mai mult]
Vânt 230º 9kt Gust 17kt
Vizibilitate >10km
Vremea -
Nori Broken Clouds 1800ft
Presiune
Schimbă -
Brut KTPF 171455Z AUTO 23009G17KT 10SM BKN018 BKN075 OVC110 30/25 A3011 RMK AO2

VFR

29°C / 25°C

[Mai mult]
Vânt 160º 3kt
Vizibilitate >10km
Vremea -
Nori Broken Clouds 9500ft
Presiune
Schimbă -
Brut KTPF 171435Z AUTO 16003KT 10SM BKN095 BKN110 29/25 A3010 RMK AO2

VFR

28°C / 25°C

[Mai mult]
Vânt variable 0kt
Vizibilitate >10km
Vremea -
Nori Scattered Clouds 4000ft
Presiune
Schimbă -
Brut KTPF 171415Z AUTO 00000KT 10SM SCT040 BKN095 28/25 A3010 RMK AO2

VFR

27°C / 25°C

[Mai mult]
Vânt 170º 4kt
Vizibilitate >10km
Vremea -
Nori Scattered Clouds 3800ft
Presiune
Schimbă -
Brut KTPF 171355Z AUTO 17004KT 10SM SCT038 SCT080 BKN100 27/25 A3009 RMK AO2

VFR

27°C / 25°C

[Mai mult]
Vânt 160º 3kt
Vizibilitate >10km
Vremea -
Nori Broken Clouds 10000ft
Presiune
Schimbă -
Brut KTPF 171335Z AUTO 16003KT 10SM BKN100 27/25 A3009 RMK AO2

VFR

27°C / 25°C

[Mai mult]
Vânt 160º 4kt
Vizibilitate >10km
Vremea -
Nori Broken Clouds 9000ft
Presiune
Schimbă -
Brut KTPF 171315Z AUTO 16004KT 10SM BKN090 BKN110 27/25 A3008 RMK AO2

VFR

27°C / 25°C

[Mai mult]
Vânt 170º 6kt
Vizibilitate >10km
Vremea -
Nori Broken Clouds 10000ft
Presiune
Schimbă -
Brut KTPF 171255Z AUTO 17006KT 10SM BKN100 27/25 A3008 RMK AO2

VFR

27°C / 25°C

[Mai mult]
Vânt 150º 3kt
Vizibilitate >10km
Vremea -
Nori Broken Clouds 9000ft
Presiune
Schimbă -
Brut KTPF 171235Z AUTO 15003KT 10SM BKN090 OVC110 27/25 A3008 RMK AO2

VFR

27°C / 25°C

[Mai mult]
Vânt 140º 3kt
Vizibilitate >10km
Vremea -
Nori Broken Clouds 10000ft
Presiune
Schimbă -
Brut KTPF 171215Z AUTO 14003KT 10SM BKN100 OVC120 27/25 A3007 RMK AO2

VFR

26°C / 24°C

[Mai mult]
Vânt variable 0kt
Vizibilitate >10km
Vremea -
Nori Overcast 9000ft
Presiune
Schimbă -
Brut KTPF 171155Z AUTO 00000KT 10SM OVC090 26/24 A3007 RMK AO2

VFR

26°C / 24°C

[Mai mult]
Vânt 130º 4kt
Vizibilitate >10km
Vremea -
Nori Scattered Clouds 900ft
Presiune
Schimbă -
Brut KTPF 171135Z AUTO 13004KT 10SM SCT009 BKN090 OVC110 26/24 A3007 RMK AO2

VFR

25°C / 24°C

[Mai mult]
Vânt 160º 3kt
Vizibilitate >10km
Vremea -
Nori Scattered Clouds 900ft
Presiune
Schimbă -
Brut KTPF 171115Z AUTO 16003KT 10SM SCT009 BKN100 OVC120 25/24 A3006 RMK AO2

VFR

25°C / 24°C

[Mai mult]
Vânt variable 0kt
Vizibilitate >10km
Vremea -
Nori Scattered Clouds 700ft
Presiune
Schimbă -
Brut KTPF 171055Z AUTO 00000KT 10SM SCT007 BKN100 OVC120 25/24 A3005 RMK AO2

VFR

25°C / 25°C

[Mai mult]
Vânt 150º 3kt
Vizibilitate >10km
Vremea -
Nori Scattered Clouds 900ft
Presiune
Schimbă -
Brut KTPF 171035Z AUTO 15003KT 10SM SCT009 BKN100 OVC110 25/25 A3004 RMK AO2

IFR

26°C / 25°C

[Mai mult]
Vânt 160º 5kt
Vizibilitate >10km
Vremea -
Nori Broken Clouds 900ft
Presiune
Schimbă -
Brut KTPF 171015Z AUTO 16005KT 10SM BKN009 OVC100 26/25 A3004 RMK AO2

VFR

26°C / 25°C

[Mai mult]
Vânt 170º 3kt
Vizibilitate >10km
Vremea -
Nori Overcast 10000ft
Presiune
Schimbă -
Brut KTPF 170955Z AUTO 17003KT 10SM OVC100 26/25 A3004 RMK AO2

VFR

25°C / 24°C

[Mai mult]
Vânt 150º 3kt
Vizibilitate >10km
Vremea -
Nori Broken Clouds 10000ft
Presiune
Schimbă -
Brut KTPF 170935Z AUTO 15003KT 10SM BKN100 OVC110 25/24 A3002 RMK AO2

VFR

26°C / 25°C

[Mai mult]
Vânt 170º 3kt
Vizibilitate >10km
Vremea -
Nori Overcast 10000ft
Presiune
Schimbă -
Brut KTPF 170915Z AUTO 17003KT 10SM OVC100 26/25 A3003 RMK AO2

Imagini satelitare actuale pentru: Tampa, Statele Unite

Markerul cu locaţia este poziţionat pe Tampa. [Mai mult]

Imaginea satelitară în timp real combină lumina vizibilă din timpul zilei cu radiația cu infraroșu din timpul nopții. Pe timp de noapte, imaginea nu este întunecată, deoarece radiația cu infraroșu poate detecta diferențele de temperatură. Din păcate, norii joși și ceața sunt greu de recunoscut față de temperatura de la sol, din această cauză putând fi invizibili pe timp de noapte. Imaginile satelitare Meteosat pentru Europa sunt actualizate în timp real din 5 în 5 minute. Imaginile GOES-16/GOES-17 (America de Nord și de Sud) și Himawari (Asia) sunt actualizate din 10 în 10 minute.

Radar și nowcast de precipitații pentru Tampa

Burniță
Ușoară
Moderat
Greu
Foarte greu
Grindină

Markerul de locație este plasat în Tampa. Această animație arată radarul de precipitații pentru ultima oră, precum și o 1h prognoză. Ploaia sau ninsoarea slabă ar putea fi invizibilă pentru radar. Intensitatea precipitațiilor este codificată prin culori, de la albastru deschis la portocaliu.